^^
Your Local Weather - Clay, NY Station Historical Data
Daily Summary for July 28, 2017 Units:  English    Metric   Both
« Previous Day
Next Day »
Daily Weekly Monthly Yearly Custom
  High: Low: Average:
Temperature: 75.4 °F 54.9 °F 65.7 °F
Dew Point: 64.1 °F 50.8 °F 58.2 °F
Humidity: 95% 52% 78%
Wind Speed: 5.0mph 0.0mph 1.5mph
Wind Gust: 10.0mph - -
Wind- - WSW
Pressure: 29.90 in 29.83 in -
Precipitation: 0.00 in    
Historical Graphs
 
 
Tabular Data for July 28, 2017
Time Temperature Dew Point Pressure Wind Wind Speed Wind Gust Humidity Rainfall Rate (Hourly) solar
00:04 63.1 °F 61.0 °F 29.84 in Calm     93% 0.00 in 0 W/m2
00:10 63.1 °F 61.0 °F 29.84 in Calm     93% 0.00 in 0 W/m2
00:16 63.2 °F 61.4 °F 29.84 in Calm     94% 0.00 in 0 W/m2
00:24 63.3 °F 61.5 °F 29.84 in Calm     94% 0.00 in 0 W/m2
00:30 63.2 °F 61.4 °F 29.84 in Calm     94% 0.00 in 0 W/m2
00:36 63.1 °F 61.3 °F 29.84 in Calm     94% 0.00 in 0 W/m2
00:42 62.9 °F 61.1 °F 29.85 in Calm     94% 0.00 in 0 W/m2
00:48 62.8 °F 61.0 °F 29.85 in Calm     94% 0.00 in 0 W/m2
00:54 62.8 °F 61.0 °F 29.84 in Calm     94% 0.00 in 0 W/m2
01:00 62.9 °F 61.1 °F 29.85 in Calm     94% 0.00 in 0 W/m2
01:06 62.9 °F 61.1 °F 29.84 in Calm     94% 0.00 in 0 W/m2
01:12 62.9 °F 61.1 °F 29.84 in Calm     94% 0.00 in 0 W/m2
01:18 62.7 °F 60.9 °F 29.84 in Calm     94% 0.00 in 0 W/m2
01:26 62.6 °F 60.8 °F 29.84 in Calm     94% 0.00 in 0 W/m2
01:32 62.5 °F 60.7 °F 29.84 in Calm     94% 0.00 in 0 W/m2
01:38 62.4 °F 60.7 °F 29.84 in Calm     94% 0.00 in 0 W/m2
01:46 62.4 °F 60.7 °F 29.84 in Calm     94% 0.00 in 0 W/m2
01:52 62.4 °F 60.7 °F 29.84 in Calm     94% 0.00 in 0 W/m2
01:58 62.2 °F 60.5 °F 29.84 in Calm     94% 0.00 in 0 W/m2
02:04 62.2 °F 60.5 °F 29.84 in Calm     94% 0.00 in 0 W/m2
02:10 62.0 °F 60.3 °F 29.84 in Calm     94% 0.00 in 0 W/m2
02:16 61.9 °F 60.2 °F 29.84 in Calm     94% 0.00 in 0 W/m2
02:22 62.0 °F 60.3 °F 29.85 in Calm     94% 0.00 in 0 W/m2
02:28 62.0 °F 60.3 °F 29.85 in Calm     94% 0.00 in 0 W/m2
02:34 61.9 °F 60.2 °F 29.85 in Calm     94% 0.00 in 0 W/m2
02:40 61.8 °F 60.1 °F 29.85 in Calm     94% 0.00 in 0 W/m2
02:46 62.0 °F 60.3 °F 29.85 in Calm     94% 0.00 in 0 W/m2
02:52 62.2 °F 60.5 °F 29.84 in Calm     94% 0.00 in 0 W/m2
02:58 62.4 °F 60.7 °F 29.84 in Calm   3.0 mph 94% 0.00 in 0 W/m2
03:04 62.3 °F 60.6 °F 29.84 in Calm     94% 0.00 in 0 W/m2
03:10 62.0 °F 60.3 °F 29.84 in Calm     94% 0.00 in 0 W/m2
03:16 61.8 °F 60.1 °F 29.84 in Calm     94% 0.00 in 0 W/m2
03:22 61.6 °F 59.9 °F 29.84 in Calm     94% 0.00 in 0 W/m2
03:34 61.4 °F 59.7 °F 29.84 in Calm     94% 0.00 in 0 W/m2
03:40 61.1 °F 59.4 °F 29.84 in Calm     94% 0.00 in 0 W/m2
03:46 61.1 °F 59.4 °F 29.83 in Calm     94% 0.00 in 0 W/m2
03:52 61.0 °F 59.3 °F 29.83 in Calm     94% 0.00 in 0 W/m2
03:58 60.9 °F 59.2 °F 29.83 in Calm     94% 0.00 in 0 W/m2
04:04 60.8 °F 59.1 °F 29.83 in Calm     94% 0.00 in 0 W/m2
04:10 60.6 °F 58.9 °F 29.84 in Calm     94% 0.00 in 0 W/m2
04:16 60.6 °F 58.9 °F 29.84 in Calm     94% 0.00 in 0 W/m2
04:22 60.4 °F 58.7 °F 29.84 in Calm     94% 0.00 in 0 W/m2
04:28 60.1 °F 58.4 °F 29.85 in Calm     94% 0.00 in 0 W/m2
04:34 60.0 °F 58.3 °F 29.85 in Calm     94% 0.00 in 0 W/m2
04:40 59.8 °F 58.1 °F 29.85 in Calm     94% 0.00 in 0 W/m2
04:46 59.8 °F 58.1 °F 29.85 in Calm   1.0 mph 94% 0.00 in 0 W/m2
04:52 60.2 °F 58.8 °F 29.85 in Calm     95% 0.00 in 0 W/m2
04:56 60.0 °F 58.6 °F 29.85 in Calm   2.0 mph 95% 0.00 in 0 W/m2
05:02 59.7 °F 58.0 °F 29.85 in Calm     94% 0.00 in 0 W/m2
05:08 59.7 °F 58.0 °F 29.85 in Calm     94% 0.00 in 0 W/m2
05:14 59.6 °F 57.9 °F 29.85 in Calm     94% 0.00 in 0 W/m2
05:20 59.4 °F 58.0 °F 29.85 in Calm     95% 0.00 in 0 W/m2
05:26 59.3 °F 57.9 °F 29.85 in Calm     95% 0.00 in 0 W/m2
05:32 59.2 °F 57.5 °F 29.85 in Calm     94% 0.00 in 0 W/m2
05:38 59.1 °F 57.4 °F 29.86 in Calm     94% 0.00 in 0 W/m2
05:44 59.1 °F 57.4 °F 29.86 in Calm     94% 0.00 in 0 W/m2
05:50 59.2 °F 57.8 °F 29.86 in Calm     95% 0.00 in 0 W/m2
05:56 59.5 °F 58.1 °F 29.86 in Calm     95% 0.00 in 9 W/m2
06:02 59.7 °F 58.3 °F 29.87 in Calm     95% 0.00 in 12 W/m2
06:08 59.8 °F 58.4 °F 29.87 in Calm     95% 0.00 in 19 W/m2
06:14 59.9 °F 58.5 °F 29.87 in Calm     95% 0.00 in 25 W/m2
06:20 60.1 °F 58.7 °F 29.87 in Calm     95% 0.00 in 30 W/m2
06:26 60.2 °F 58.8 °F 29.87 in Calm     95% 0.00 in 26 W/m2
06:32 60.4 °F 59.0 °F 29.87 in Calm     95% 0.00 in 33 W/m2
06:38 60.5 °F 59.1 °F 29.87 in Calm     95% 0.00 in 65 W/m2
06:44 60.6 °F 59.2 °F 29.87 in Calm     95% 0.00 in 70 W/m2
06:56 61.8 °F 60.4 °F 29.88 in Calm     95% 0.00 in 63 W/m2
07:02 61.9 °F 60.5 °F 29.88 in Calm     95% 0.00 in 46 W/m2
07:08 61.7 °F 60.3 °F 29.88 in Calm     95% 0.00 in 44 W/m2
07:14 61.7 °F 60.3 °F 29.88 in Calm     95% 0.00 in 49 W/m2
07:20 61.8 °F 60.4 °F 29.88 in Calm     95% 0.00 in 63 W/m2
07:26 61.9 °F 60.5 °F 29.88 in Calm     95% 0.00 in 76 W/m2
07:32 61.8 °F 60.4 °F 29.88 in Calm     95% 0.00 in 83 W/m2
07:38 61.9 °F 60.5 °F 29.88 in Calm   2.0 mph 95% 0.00 in 100 W/m2
07:44 62.0 °F 60.6 °F 29.88 in NW 1.0 mph 1.0 mph 95% 0.00 in 120 W/m2
07:50 62.1 °F 60.7 °F 29.88 in NW 2.0 mph 2.0 mph 95% 0.00 in 102 W/m2
07:56 62.3 °F 60.8 °F 29.88 in NW 2.0 mph 2.0 mph 95% 0.00 in 223 W/m2
08:02 62.8 °F 61.3 °F 29.88 in NW 2.0 mph 2.0 mph 95% 0.00 in 253 W/m2
08:08 63.1 °F 61.6 °F 29.88 in NE 1.0 mph 2.0 mph 95% 0.00 in 243 W/m2
08:14 63.5 °F 62.0 °F 29.88 in NNW 1.0 mph 1.0 mph 95% 0.00 in 241 W/m2
08:20 64.0 °F 62.5 °F 29.88 in North 1.0 mph 2.0 mph 95% 0.00 in 290 W/m2
08:26 64.6 °F 63.1 °F 29.88 in North 1.0 mph 2.0 mph 95% 0.00 in 357 W/m2
08:32 65.1 °F 63.6 °F 29.88 in NNW 1.0 mph 2.0 mph 95% 0.00 in 410 W/m2
08:44 65.9 °F 64.1 °F 29.88 in North 3.0 mph 5.0 mph 94% 0.00 in 454 W/m2
08:50 66.6 °F 63.9 °F 29.88 in North 3.0 mph 3.0 mph 91% 0.00 in 415 W/m2
08:56 67.0 °F 63.3 °F 29.88 in North 3.0 mph 5.0 mph 88% 0.00 in 376 W/m2
09:02 67.4 °F 63.4 °F 29.89 in NW 3.0 mph 3.0 mph 87% 0.00 in 274 W/m2
09:08 67.5 °F 62.8 °F 29.89 in NW 2.0 mph 3.0 mph 85% 0.00 in 325 W/m2
09:14 67.6 °F 62.6 °F 29.89 in North 2.0 mph 4.0 mph 84% 0.00 in 417 W/m2
09:20 67.7 °F 61.7 °F 29.89 in North 3.0 mph 3.0 mph 81% 0.00 in 204 W/m2
09:26 68.3 °F 62.6 °F 29.89 in NE 2.0 mph 6.0 mph 82% 0.00 in 587 W/m2
09:32 69.4 °F 63.0 °F 29.88 in NNW 2.0 mph 3.0 mph 80% 0.00 in 598 W/m2
09:38 69.8 °F 62.3 °F 29.88 in NNE 2.0 mph 6.0 mph 77% 0.00 in 619 W/m2
09:44 69.6 °F 61.3 °F 29.88 in NNE 2.0 mph 4.0 mph 75% 0.00 in 566 W/m2
09:50 69.8 °F 61.1 °F 29.88 in North 2.0 mph 3.0 mph 74% 0.00 in 654 W/m2
09:56 69.7 °F 60.7 °F 29.88 in NNE 3.0 mph 4.0 mph 73% 0.00 in 698 W/m2
10:02 70.0 °F 61.3 °F 29.88 in North 4.0 mph 4.0 mph 74% 0.00 in 661 W/m2
10:08 70.1 °F 62.2 °F 29.88 in NNE 3.0 mph 4.0 mph 76% 0.00 in 705 W/m2
10:14 70.2 °F 60.7 °F 29.89 in North 2.0 mph 3.0 mph 72% 0.00 in 726 W/m2
10:20 70.6 °F 60.7 °F 29.89 in NNE 2.0 mph 2.0 mph 71% 0.00 in 534 W/m2
10:32 70.5 °F 61.0 °F 29.89 in NW 2.0 mph 2.0 mph 72% 0.00 in 522 W/m2
10:38 70.5 °F 61.4 °F 29.89 in North 2.0 mph 4.0 mph 73% 0.00 in 768 W/m2
10:44 71.2 °F 61.7 °F 29.89 in North 2.0 mph 3.0 mph 72% 0.00 in 338 W/m2
10:50 71.8 °F 61.5 °F 29.89 in NW 1.0 mph 1.0 mph 70% 0.00 in 559 W/m2
10:56 72.3 °F 62.8 °F 29.89 in NW 1.0 mph 5.0 mph 72% 0.00 in 742 W/m2
11:02 72.4 °F 61.7 °F 29.89 in East 2.0 mph 7.0 mph 69% 0.00 in 784 W/m2
11:08 72.2 °F 61.9 °F 29.89 in NNW 1.0 mph 7.0 mph 70% 0.00 in 789 W/m2
11:14 73.0 °F 61.8 °F 29.88 in NNW 1.0 mph 2.0 mph 68% 0.00 in 911 W/m2
11:20 72.4 °F 61.7 °F 29.88 in WSW 1.0 mph 1.0 mph 69% 0.00 in 318 W/m2
11:26 73.1 °F 62.7 °F 29.88 in North 1.0 mph 3.0 mph 70% 0.00 in 297 W/m2
11:32 72.3 °F 61.1 °F 29.88 in NW 2.0 mph 2.0 mph 68% 0.00 in 763 W/m2
11:38 72.9 °F 61.3 °F 29.88 in NNE 2.0 mph 3.0 mph 67% 0.00 in 763 W/m2
11:44 72.3 °F 61.1 °F 29.88 in NW 2.0 mph 4.0 mph 68% 0.00 in 417 W/m2
11:50 73.1 °F 62.3 °F 29.88 in WNW 2.0 mph 6.0 mph 69% 0.00 in 315 W/m2
11:56 72.3 °F 60.3 °F 29.88 in NNE 1.0 mph 6.0 mph 66% 0.00 in 253 W/m2
12:02 72.5 °F 58.7 °F 29.88 in NW 2.0 mph 5.0 mph 62% 0.00 in 826 W/m2
12:08 73.1 °F 60.2 °F 29.88 in WNW 3.0 mph 5.0 mph 64% 0.00 in 791 W/m2
12:14 73.5 °F 61.4 °F 29.88 in North 3.0 mph 3.0 mph 66% 0.00 in 986 W/m2
12:22 74.2 °F 61.7 °F 29.88 in NW 3.0 mph 4.0 mph 65% 0.00 in 870 W/m2
12:28 73.9 °F 60.5 °F 29.88 in NNE 3.0 mph 4.0 mph 63% 0.00 in 770 W/m2
12:34 73.5 °F 60.1 °F 29.88 in WNW 2.0 mph 5.0 mph 63% 0.00 in 357 W/m2
12:40 72.5 °F 59.6 °F 29.88 in WNW 2.0 mph 2.0 mph 64% 0.00 in 346 W/m2
12:46 72.6 °F 61.0 °F 29.88 in NW 2.0 mph 3.0 mph 67% 0.00 in 424 W/m2
12:52 73.3 °F 60.4 °F 29.88 in NNW 2.0 mph 2.0 mph 64% 0.00 in 956 W/m2
12:58 74.0 °F 59.7 °F 29.88 in East 2.0 mph 3.0 mph 61% 0.00 in 617 W/m2
13:04 74.6 °F 59.8 °F 29.88 in NNW 2.0 mph 4.0 mph 60% 0.00 in 911 W/m2
13:10 74.9 °F 61.5 °F 29.88 in NNW 2.0 mph 3.0 mph 63% 0.00 in 907 W/m2
13:16 74.5 °F 62.4 °F 29.88 in NNW 3.0 mph 6.0 mph 66% 0.00 in 766 W/m2
13:28 74.4 °F 60.5 °F 29.88 in NW 3.0 mph 5.0 mph 62% 0.00 in 823 W/m2
13:34 74.2 °F 58.9 °F 29.88 in North 3.0 mph 7.0 mph 59% 0.00 in 791 W/m2
13:40 74.3 °F 59.5 °F 29.88 in North 3.0 mph 3.0 mph 60% 0.00 in 770 W/m2
13:46 74.9 °F 62.3 °F 29.88 in WNW 2.0 mph 3.0 mph 65% 0.00 in 1007 W/m2
13:52 74.9 °F 57.6 °F 29.88 in NNW 3.0 mph 5.0 mph 55% 0.00 in 868 W/m2
13:58 74.5 °F 58.3 °F 29.88 in North 5.0 mph 5.0 mph 57% 0.00 in 979 W/m2
14:04 74.8 °F 57.0 °F 29.88 in WNW 4.0 mph 5.0 mph 54% 0.00 in 954 W/m2
14:10 74.6 °F 55.8 °F 29.87 in NNE 4.0 mph 4.0 mph 52% 0.00 in 879 W/m2
14:16 75.4 °F 57.6 °F 29.87 in WNW 4.0 mph 5.0 mph 54% 0.00 in 935 W/m2
14:22 74.7 °F 58.0 °F 29.87 in NNW 3.0 mph 4.0 mph 56% 0.00 in 960 W/m2
14:34 74.6 °F 58.4 °F 29.87 in NNW 4.0 mph 8.0 mph 57% 0.00 in 893 W/m2
14:40 74.3 °F 57.6 °F 29.87 in NW 4.0 mph 4.0 mph 56% 0.00 in 522 W/m2
14:46 73.3 °F 56.7 °F 29.86 in North 4.0 mph 4.0 mph 56% 0.00 in 635 W/m2
14:52 73.3 °F 59.9 °F 29.87 in NNW 4.0 mph 5.0 mph 63% 0.00 in 461 W/m2
14:58 72.8 °F 58.6 °F 29.87 in NNW 3.0 mph 5.0 mph 61% 0.00 in 403 W/m2
15:04 72.1 °F 56.5 °F 29.87 in NW 3.0 mph 3.0 mph 58% 0.00 in 350 W/m2
15:10 71.7 °F 58.4 °F 29.87 in NNW 3.0 mph 3.0 mph 63% 0.00 in 387 W/m2
15:16 71.4 °F 57.2 °F 29.87 in North 4.0 mph 7.0 mph 61% 0.00 in 466 W/m2
15:22 71.5 °F 58.2 °F 29.87 in WNW 5.0 mph 6.0 mph 63% 0.00 in 466 W/m2
15:28 71.6 °F 58.8 °F 29.87 in NNW 4.0 mph 6.0 mph 64% 0.00 in 422 W/m2
15:34 71.2 °F 57.1 °F 29.87 in North 4.0 mph 4.0 mph 61% 0.00 in 418 W/m2
15:40 70.8 °F 58.4 °F 29.87 in North 4.0 mph 5.0 mph 65% 0.00 in 526 W/m2
15:46 71.5 °F 60.8 °F 29.87 in NNW 3.0 mph 7.0 mph 69% 0.00 in 501 W/m2
15:52 71.2 °F 58.4 °F 29.87 in NW 3.0 mph 4.0 mph 64% 0.00 in 353 W/m2
15:58 70.2 °F 58.3 °F 29.87 in NNE 3.0 mph 4.0 mph 66% 0.00 in 302 W/m2
16:04 69.9 °F 58.0 °F 29.87 in NNW 3.0 mph 4.0 mph 66% 0.00 in 468 W/m2
16:10 70.4 °F 60.1 °F 29.87 in NNW 3.0 mph 3.0 mph 70% 0.00 in 455 W/m2
16:16 71.0 °F 58.2 °F 29.87 in NNE 4.0 mph 5.0 mph 64% 0.00 in 538 W/m2
16:22 70.0 °F 57.3 °F 29.87 in North 5.0 mph 6.0 mph 64% 0.00 in 659 W/m2
16:28 70.8 °F 58.4 °F 29.87 in North 5.0 mph 6.0 mph 65% 0.00 in 499 W/m2
16:34 71.3 °F 58.5 °F 29.86 in WNW 4.0 mph 4.0 mph 64% 0.00 in 652 W/m2
16:40 71.2 °F 58.8 °F 29.86 in NW 4.0 mph 5.0 mph 65% 0.00 in 527 W/m2
16:46 70.6 °F 56.9 °F 29.86 in NW 4.0 mph 5.0 mph 62% 0.00 in 545 W/m2
16:52 70.8 °F 57.1 °F 29.86 in NW 4.0 mph 4.0 mph 62% 0.00 in 578 W/m2
16:58 70.8 °F 56.7 °F 29.86 in WNW 5.0 mph 10.0 mph 61% 0.00 in 167 W/m2
17:04 70.4 °F 56.8 °F 29.86 in NNW 5.0 mph 6.0 mph 62% 0.00 in 127 W/m2
17:10 70.3 °F 57.1 °F 29.86 in North 4.0 mph 7.0 mph 63% 0.00 in 63 W/m2
17:16 70.3 °F 56.2 °F 29.86 in NW 4.0 mph 8.0 mph 61% 0.00 in 60 W/m2
17:22 69.8 °F 55.3 °F 29.87 in NW 5.0 mph 5.0 mph 60% 0.00 in 62 W/m2
17:28 69.5 °F 55.9 °F 29.86 in NW 4.0 mph 7.0 mph 62% 0.00 in 79 W/m2
17:34 69.6 °F 56.9 °F 29.86 in NNW 4.0 mph 8.0 mph 64% 0.00 in 79 W/m2
17:40 69.6 °F 56.4 °F 29.86 in NW 4.0 mph 4.0 mph 63% 0.00 in 77 W/m2
17:46 69.8 °F 56.2 °F 29.86 in NW 2.0 mph 4.0 mph 62% 0.00 in 69 W/m2
17:52 69.7 °F 56.5 °F 29.86 in NNW 3.0 mph 4.0 mph 63% 0.00 in 60 W/m2
17:58 69.4 °F 55.4 °F 29.86 in NNW 5.0 mph 6.0 mph 61% 0.00 in 53 W/m2
18:04 69.4 °F 55.8 °F 29.86 in NNW 5.0 mph 7.0 mph 62% 0.00 in 51 W/m2
18:10 69.6 °F 56.9 °F 29.86 in NNW 3.0 mph 3.0 mph 64% 0.00 in 53 W/m2
18:16 69.6 °F 56.4 °F 29.86 in NW 2.0 mph 7.0 mph 63% 0.00 in 53 W/m2
18:22 69.1 °F 55.5 °F 29.86 in NW 4.0 mph 4.0 mph 62% 0.00 in 54 W/m2
18:28 69.0 °F 55.9 °F 29.86 in NNE 4.0 mph 6.0 mph 63% 0.00 in 58 W/m2
18:36 69.0 °F 55.9 °F 29.86 in North 4.0 mph 4.0 mph 63% 0.00 in 53 W/m2
18:42 68.9 °F 55.8 °F 29.85 in NW 3.0 mph 4.0 mph 63% 0.00 in 40 W/m2
18:48 68.8 °F 55.7 °F 29.85 in NW 4.0 mph 7.0 mph 63% 0.00 in 35 W/m2
18:54 68.7 °F 55.6 °F 29.85 in NW 3.0 mph 7.0 mph 63% 0.00 in 32 W/m2
19:00 68.6 °F 55.5 °F 29.86 in NW 3.0 mph 3.0 mph 63% 0.00 in 32 W/m2
19:06 68.4 °F 55.3 °F 29.86 in WNW 3.0 mph 3.0 mph 63% 0.00 in 30 W/m2
19:12 68.2 °F 55.6 °F 29.86 in North 2.0 mph 4.0 mph 64% 0.00 in 28 W/m2
19:18 68.1 °F 55.5 °F 29.86 in NW 2.0 mph 4.0 mph 64% 0.00 in 26 W/m2
19:24 68.0 °F 55.4 °F 29.86 in NNW 2.0 mph 3.0 mph 64% 0.00 in 26 W/m2
19:30 67.8 °F 55.2 °F 29.87 in WNW 2.0 mph 2.0 mph 64% 0.00 in 25 W/m2
19:36 67.6 °F 55.4 °F 29.87 in North 2.0 mph 6.0 mph 65% 0.00 in 25 W/m2
19:42 67.3 °F 54.3 °F 29.87 in NW 2.0 mph 3.0 mph 63% 0.00 in 23 W/m2
19:54 66.8 °F 54.2 °F 29.87 in NNW 1.0 mph 1.0 mph 64% 0.00 in 19 W/m2
20:00 66.5 °F 54.4 °F 29.87 in NNW 1.0 mph 1.0 mph 65% 0.00 in 18 W/m2
20:06 66.1 °F 54.0 °F 29.86 in NNW 1.0 mph 1.0 mph 65% 0.00 in 14 W/m2
20:12 65.7 °F 54.0 °F 29.87 in Calm   1.0 mph 66% 0.00 in 12 W/m2
20:18 65.2 °F 54.0 °F 29.87 in Calm   1.0 mph 67% 0.00 in 9 W/m2
20:24 64.6 °F 54.2 °F 29.87 in Calm     69% 0.00 in 5 W/m2
20:30 64.1 °F 54.5 °F 29.87 in Calm   2.0 mph 71% 0.00 in 5 W/m2
20:36 63.6 °F 53.6 °F 29.87 in Calm   2.0 mph 70% 0.00 in 0 W/m2
20:42 63.2 °F 54.0 °F 29.87 in Calm     72% 0.00 in 0 W/m2
20:48 62.8 °F 53.6 °F 29.87 in Calm     72% 0.00 in 0 W/m2
20:54 62.4 °F 53.3 °F 29.87 in Calm     72% 0.00 in 0 W/m2
21:00 62.0 °F 53.2 °F 29.87 in Calm     73% 0.00 in 0 W/m2
21:06 61.5 °F 53.1 °F 29.88 in Calm     74% 0.00 in 0 W/m2
21:12 60.9 °F 53.3 °F 29.88 in Calm     76% 0.00 in 0 W/m2
21:18 60.3 °F 53.4 °F 29.88 in Calm     78% 0.00 in 0 W/m2
21:24 59.9 °F 53.4 °F 29.88 in Calm     79% 0.00 in 0 W/m2
21:30 59.4 °F 52.9 °F 29.88 in Calm     79% 0.00 in 0 W/m2
21:36 59.1 °F 52.9 °F 29.88 in Calm     80% 0.00 in 0 W/m2
21:42 58.8 °F 53.0 °F 29.89 in Calm     81% 0.00 in 0 W/m2
21:54 58.2 °F 52.7 °F 29.88 in Calm   2.0 mph 82% 0.00 in 0 W/m2
22:00 58.1 °F 52.6 °F 29.88 in Calm   3.0 mph 82% 0.00 in 0 W/m2
22:06 58.3 °F 51.8 °F 29.88 in North 1.0 mph 3.0 mph 79% 0.00 in 0 W/m2
22:12 58.8 °F 51.6 °F 29.88 in Calm   1.0 mph 77% 0.00 in 0 W/m2
22:18 59.0 °F 51.4 °F 29.89 in Calm   1.0 mph 76% 0.00 in 0 W/m2
22:30 58.8 °F 51.6 °F 29.89 in Calm     77% 0.00 in 0 W/m2
22:36 58.3 °F 51.5 °F 29.89 in Calm     78% 0.00 in 0 W/m2
22:42 57.9 °F 51.4 °F 29.90 in Calm     79% 0.00 in 0 W/m2
22:48 57.5 °F 51.4 °F 29.89 in Calm     80% 0.00 in 0 W/m2
22:54 57.3 °F 51.5 °F 29.89 in Calm     81% 0.00 in 0 W/m2
23:00 56.9 °F 51.5 °F 29.89 in Calm     82% 0.00 in 0 W/m2
23:06 56.6 °F 51.5 °F 29.89 in Calm     83% 0.00 in 0 W/m2
23:12 56.4 °F 51.6 °F 29.89 in Calm     84% 0.00 in 0 W/m2
23:18 56.1 °F 51.3 °F 29.89 in Calm     84% 0.00 in 0 W/m2
23:24 55.7 °F 50.9 °F 29.89 in Calm     84% 0.00 in 0 W/m2
23:30 55.5 °F 51.1 °F 29.89 in Calm     85% 0.00 in 0 W/m2
23:36 55.2 °F 50.8 °F 29.89 in Calm     85% 0.00 in 0 W/m2
23:42 55.0 °F 50.9 °F 29.89 in Calm     86% 0.00 in 0 W/m2
23:48 54.9 °F 50.8 °F 29.89 in Calm     86% 0.00 in 0 W/m2
23:54 54.9 °F 51.1 °F 29.89 in Calm     87% 0.00 in 0 W/m2
Country Meadow, Clay, NY, USA
Compliments of Weather Underground - 2 mb